Time,TemperatureF,DewpointF,PressureIn,WindDirection,WindDirectionDegrees,WindSpeedMPH,WindSpeedGustMPH,Humidity,HourlyPrecipIn,Conditions,Clouds,dailyrainin,SoftwareType,DateUTC
2013-05-07 00:02:00,66.0,-99.9,-100.00,East,88,6.0,6.0,-999,-99.99,,,-99.99,,2013-05-07 07:02:00,
2013-05-07 00:11:00,66.0,-99.9,-100.00,East,88,6.0,6.0,-999,-99.99,,,-99.99,,2013-05-07 07:11:00,
2013-05-07 00:22:00,66.0,-99.9,-100.00,East,88,6.0,6.0,-999,-99.99,,,-99.99,,2013-05-07 07:22:00,
2013-05-07 01:02:00,67.0,-99.9,-100.00,SSE,149,0.0,1.0,-999,-99.99,,,-99.99,,2013-05-07 08:02:00,
2013-05-07 01:11:00,67.0,-99.9,-100.00,SSE,149,0.0,1.0,-999,-99.99,,,-99.99,,2013-05-07 08:11:00,
2013-05-07 01:22:00,67.0,-99.9,-100.00,SSE,149,0.0,1.0,-999,-99.99,,,-99.99,,2013-05-07 08:22:00,
2013-05-07 02:33:00,65.0,-99.9,-100.00,East,79,2.0,4.0,-999,-99.99,,,-99.99,,2013-05-07 09:33:00,
2013-05-07 02:43:00,65.0,-99.9,-100.00,East,79,2.0,4.0,-999,-99.99,,,-99.99,,2013-05-07 09:43:00,
2013-05-07 04:30:00,64.0,-99.9,-100.00,SSW,210,0.0,6.0,-999,-99.99,,,-99.99,,2013-05-07 11:30:00,
2013-05-07 05:02:00,64.0,-99.9,-100.00,SSW,210,0.0,6.0,-999,-99.99,,,-99.99,,2013-05-07 12:02:00,
2013-05-07 05:12:00,64.0,-99.9,-100.00,SSW,210,0.0,6.0,-999,-99.99,,,-99.99,,2013-05-07 12:12:00,
2013-05-07 05:22:00,64.0,-99.9,-100.00,SSW,210,0.0,6.0,-999,-99.99,,,-99.99,,2013-05-07 12:22:00,
2013-05-07 07:10:00,66.0,-99.9,-100.00,East,84,2.0,5.0,-999,-99.99,,,-99.99,,2013-05-07 14:10:00,
2013-05-07 07:52:00,66.0,-99.9,-100.00,East,84,2.0,5.0,-999,-99.99,,,-99.99,,2013-05-07 14:52:00,
2013-05-07 08:01:00,66.0,-99.9,-100.00,East,84,2.0,5.0,-999,-99.99,,,-99.99,,2013-05-07 15:01:00,
2013-05-07 11:30:00,76.0,-99.9,-100.00,ENE,66,2.0,6.0,-999,-99.99,,,-99.99,,2013-05-07 18:30:00,
2013-05-07 12:22:00,76.0,-99.9,-100.00,ENE,66,2.0,6.0,-999,-99.99,,,-99.99,,2013-05-07 19:22:00,
2013-05-07 13:52:00,76.0,-99.9,-100.00,West,261,7.0,11.0,-999,-99.99,,,-99.99,,2013-05-07 20:52:00,
2013-05-07 14:02:00,76.0,-99.9,-100.00,West,261,7.0,11.0,-999,-99.99,,,-99.99,,2013-05-07 21:02:00,
2013-05-07 15:02:00,77.0,-99.9,-100.00,SSW,195,1.0,9.0,-999,-99.99,,,-99.99,,2013-05-07 22:02:00,
2013-05-07 15:13:00,77.0,-99.9,-100.00,SSW,195,1.0,9.0,-999,-99.99,,,-99.99,,2013-05-07 22:13:00,
2013-05-07 15:23:00,77.0,-99.9,-100.00,SSW,195,1.0,9.0,-999,-99.99,,,-99.99,,2013-05-07 22:23:00,
2013-05-07 15:50:00,78.0,-99.9,-100.00,West,272,13.0,16.0,-999,-99.99,,,-99.99,,2013-05-07 22:50:00,
2013-05-07 16:32:00,78.0,-99.9,-100.00,West,272,13.0,16.0,-999,-99.99,,,-99.99,,2013-05-07 23:32:00,
2013-05-07 16:42:00,78.0,-99.9,-100.00,West,272,13.0,16.0,-999,-99.99,,,-99.99,,2013-05-07 23:42:00,
2013-05-07 17:20:00,76.0,-99.9,-100.00,WNW,287,19.0,19.0,-999,-99.99,,,-99.99,,2013-05-08 00:20:00,
2013-05-07 17:22:00,78.0,-99.9,-100.00,WNW,301,7.0,17.0,-999,-99.99,,,-99.99,,2013-05-08 00:22:00,
2013-05-07 17:32:00,78.0,-99.9,-100.00,WNW,301,7.0,17.0,-999,-99.99,,,-99.99,,2013-05-08 00:32:00,
2013-05-07 18:02:00,76.0,-99.9,-100.00,WNW,287,19.0,19.0,-999,-99.99,,,-99.99,,2013-05-08 01:02:00,
2013-05-07 18:12:00,76.0,-99.9,-100.00,WNW,287,19.0,19.0,-999,-99.99,,,-99.99,,2013-05-08 01:12:00,
2013-05-07 20:20:00,71.0,-99.9,-100.00,West,271,23.0,24.0,-999,-99.99,,,-99.99,,2013-05-08 03:20:00,
2013-05-07 21:02:00,71.0,-99.9,-100.00,West,271,23.0,24.0,-999,-99.99,,,-99.99,,2013-05-08 04:02:00,
2013-05-07 21:13:00,71.0,-99.9,-100.00,West,271,23.0,24.0,-999,-99.99,,,-99.99,,2013-05-08 04:13:00,
2013-05-07 21:40:00,70.0,-99.9,-100.00,West,271,6.0,23.0,-999,-99.99,,,-99.99,,2013-05-08 04:40:00,
2013-05-07 22:03:00,71.0,-99.9,-100.00,WNW,292,5.0,23.0,-999,-99.99,,,-99.99,,2013-05-08 05:03:00,
2013-05-07 22:12:00,71.0,-99.9,-100.00,WNW,292,5.0,23.0,-999,-99.99,,,-99.99,,2013-05-08 05:12:00,
2013-05-07 22:22:00,70.0,-99.9,-100.00,West,271,6.0,23.0,-999,-99.99,,,-99.99,,2013-05-08 05:22:00,
2013-05-07 22:32:00,70.0,-99.9,-100.00,West,271,6.0,23.0,-999,-99.99,,,-99.99,,2013-05-08 05:32:00,
2013-05-07 23:32:00,68.0,-99.9,-100.00,NNW,330,4.0,22.0,-999,-99.99,,,-99.99,,2013-05-08 06:32:00,
2013-05-07 23:42:00,68.0,-99.9,-100.00,NNW,330,4.0,22.0,-999,-99.99,,,-99.99,,2013-05-08 06:42:00,